Kelsey, Texas
Current Conditions -  °F | °C
As of 6:35 AM on Sunday 23 Nov 2014 (Local Time) from KOSA Reporting Station
Overcast Overcast  
Wind Chill: 59°   Ceiling: 1800
Heat Index: 59°   Visibility: 4mi
Dew Point: 59°   Wind: 7mph
Humidity: 100%   Direction: 140°SE
Pressure: 29.62"   Gusts: NA
Location:  32.7353°N, 94.9492°W
Report Text: KOSA 231235Z AUTO 14006KT 4SM OVC018 15/15 A2962 RMK AO1 T01500150
Loading
Personal Weather Stations






























Interactive Weather Map New forecast layout! Learn more

10-Day Weather Forecast

Advertisements
Track Severe Weather on mobile